createdAt,value
2023-01-19T00:00:12.484Z,28.80
2023-01-19T00:02:40.608Z,28.67
2023-01-19T00:05:09.183Z,27.85
2023-01-19T00:07:37.343Z,27.25
2023-01-19T00:10:06.391Z,28.25
2023-01-19T00:12:34.589Z,27.15
2023-01-19T00:15:05.087Z,27.55
2023-01-19T00:17:33.238Z,26.95
2023-01-19T00:20:01.344Z,27.33
2023-01-19T00:22:29.547Z,27.08
2023-01-19T00:24:57.669Z,26.50
2023-01-19T00:27:25.983Z,26.08
2023-01-19T00:29:54.091Z,26.15
2023-01-19T00:32:23.635Z,27.05
2023-01-19T00:34:52.400Z,25.05
2023-01-19T00:37:20.758Z,26.42
2023-01-19T00:39:48.826Z,25.95
2023-01-19T00:42:34.453Z,25.50
2023-01-19T00:45:02.635Z,25.45
2023-01-19T00:47:32.367Z,24.27
2023-01-19T00:50:00.458Z,24.77
2023-01-19T00:52:28.618Z,24.00
2023-01-19T00:54:56.715Z,23.77
2023-01-19T00:57:24.871Z,23.80
2023-01-19T00:59:53.025Z,23.35
2023-01-19T01:02:21.329Z,24.00
2023-01-19T01:04:54.823Z,22.67
2023-01-19T01:07:23.086Z,22.77
2023-01-19T01:09:51.589Z,22.83
2023-01-19T01:12:19.701Z,22.02
2023-01-19T01:14:47.846Z,22.48
2023-01-19T01:17:16.686Z,21.92
2023-01-19T01:19:44.858Z,19.73
2023-01-19T01:22:14.330Z,20.63
2023-01-19T01:24:42.580Z,20.40
2023-01-19T01:27:10.676Z,20.92
2023-01-19T01:29:41.161Z,21.25
2023-01-19T01:32:09.951Z,20.70
2023-01-19T01:34:38.022Z,20.38
2023-01-19T01:37:08.383Z,20.20
2023-01-19T01:39:37.895Z,19.98
2023-01-19T01:42:10.698Z,19.77
2023-01-19T01:44:50.030Z,20.83
2023-01-19T01:47:28.376Z,20.25
2023-01-19T01:49:59.551Z,20.33
2023-01-19T01:52:27.890Z,19.33
2023-01-19T01:54:57.479Z,19.13
2023-01-19T01:57:28.166Z,19.83
2023-01-19T01:59:56.586Z,18.73
2023-01-19T02:02:43.707Z,19.00
2023-01-19T02:05:12.542Z,18.33
2023-01-19T02:08:02.441Z,18.83
2023-01-19T02:10:49.442Z,18.83
2023-01-19T02:13:23.459Z,17.95
2023-01-19T02:15:52.828Z,17.70
2023-01-19T02:18:21.337Z,17.45
2023-01-19T02:20:54.907Z,17.70
2023-01-19T02:23:34.260Z,17.80
2023-01-19T02:26:02.389Z,17.55
2023-01-19T02:28:30.510Z,17.08
2023-01-19T02:30:58.771Z,17.10
2023-01-19T02:33:27.158Z,18.25
2023-01-19T02:35:55.319Z,17.15
2023-01-19T02:38:23.915Z,16.58
2023-01-19T02:40:53.476Z,16.48
2023-01-19T02:43:21.553Z,14.73
2023-01-19T02:45:50.129Z,14.10
2023-01-19T02:48:19.168Z,14.63
2023-01-19T02:50:49.926Z,15.00
2023-01-19T02:53:33.150Z,15.90
2023-01-19T02:56:06.899Z,15.82
2023-01-19T02:58:35.968Z,14.80
2023-01-19T03:01:09.015Z,13.77
2023-01-19T03:03:40.482Z,14.05
2023-01-19T03:06:11.112Z,13.95
2023-01-19T03:08:44.360Z,13.98
2023-01-19T03:11:14.106Z,14.68
2023-01-19T03:13:45.339Z,14.07
2023-01-19T03:16:17.015Z,13.65
2023-01-19T03:18:46.674Z,13.38
2023-01-19T03:21:14.842Z,13.70
2023-01-19T03:23:43.431Z,13.68
2023-01-19T03:26:14.383Z,13.52
2023-01-19T03:28:42.782Z,12.90
2023-01-19T03:31:13.480Z,12.63
2023-01-19T03:33:43.050Z,11.88
2023-01-19T03:36:13.738Z,12.30
2023-01-19T03:38:41.952Z,12.30
2023-01-19T03:41:12.867Z,12.63
2023-01-19T03:43:42.375Z,13.15
2023-01-19T03:46:11.055Z,12.50
2023-01-19T03:48:39.498Z,11.95
2023-01-19T03:51:08.930Z,12.20
2023-01-19T03:53:36.992Z,12.38
2023-01-19T03:56:06.104Z,12.27
2023-01-19T03:58:34.260Z,11.88
2023-01-19T04:01:04.303Z,11.75
2023-01-19T04:03:32.573Z,11.85
2023-01-19T04:06:00.667Z,12.02
2023-01-19T04:08:28.885Z,11.60
2023-01-19T04:10:58.704Z,11.40
2023-01-19T04:13:27.212Z,11.77
2023-01-19T04:15:55.337Z,11.63
2023-01-19T04:18:24.911Z,12.00
2023-01-19T04:20:52.980Z,11.55
2023-01-19T04:23:21.153Z,11.82
2023-01-19T04:25:49.297Z,11.13
2023-01-19T04:28:17.673Z,10.75
2023-01-19T04:30:45.810Z,10.68
2023-01-19T04:33:13.971Z,11.13
2023-01-19T04:35:43.612Z,11.02
2023-01-19T04:38:11.712Z,10.57
2023-01-19T04:40:39.871Z,10.15
2023-01-19T04:43:08.030Z,10.15
2023-01-19T04:45:36.716Z,10.50
2023-01-19T04:48:05.831Z,11.25
2023-01-19T04:50:34.009Z,10.13
2023-01-19T04:53:03.563Z,10.23
2023-01-19T04:55:31.814Z,9.80
2023-01-19T04:57:59.963Z,10.10
2023-01-19T05:00:28.011Z,10.13
2023-01-19T05:02:56.214Z,9.32
2023-01-19T05:05:24.473Z,9.63
2023-01-19T05:07:52.625Z,9.25
2023-01-19T05:10:22.159Z,9.80
2023-01-19T05:12:50.296Z,9.40
2023-01-19T05:15:18.536Z,9.07
2023-01-19T05:17:46.757Z,9.63
2023-01-19T05:20:16.338Z,9.23
2023-01-19T05:22:44.674Z,9.35
2023-01-19T05:25:12.834Z,9.00
2023-01-19T05:27:42.311Z,9.55
2023-01-19T05:30:11.996Z,8.68
2023-01-19T05:32:40.097Z,9.20
2023-01-19T05:35:09.302Z,8.73
2023-01-19T05:37:37.490Z,8.90
2023-01-19T05:40:07.002Z,8.25
2023-01-19T05:42:35.049Z,8.82
2023-01-19T05:45:04.810Z,8.40
2023-01-19T05:47:32.941Z,8.75
2023-01-19T05:50:01.075Z,8.75
2023-01-19T05:52:29.122Z,8.80
2023-01-19T05:54:57.237Z,7.93
2023-01-19T05:57:25.302Z,8.05
2023-01-19T05:59:53.484Z,8.20
2023-01-19T06:02:28.703Z,7.70
2023-01-19T06:04:57.285Z,8.50
2023-01-19T06:07:27.531Z,8.50
2023-01-19T06:09:56.999Z,7.78
2023-01-19T06:12:25.137Z,7.72
2023-01-19T06:14:53.453Z,7.95
2023-01-19T06:17:23.018Z,8.00
2023-01-19T06:19:51.188Z,8.35
2023-01-19T06:22:19.290Z,7.55
2023-01-19T06:24:47.500Z,7.95
2023-01-19T06:27:15.670Z,7.20
2023-01-19T06:29:43.765Z,7.80
2023-01-19T06:32:11.857Z,7.55
2023-01-19T06:34:43.859Z,7.45
2023-01-19T06:37:12.295Z,7.20
2023-01-19T06:39:41.197Z,7.07
2023-01-19T06:42:09.328Z,7.30
2023-01-19T06:44:37.482Z,7.03
2023-01-19T06:47:14.647Z,7.45
2023-01-19T06:49:45.653Z,7.07
2023-01-19T06:52:15.990Z,6.90
2023-01-19T06:54:45.256Z,7.10
2023-01-19T06:57:14.007Z,7.00
2023-01-19T06:59:42.184Z,6.78
2023-01-19T07:02:26.511Z,7.65
2023-01-19T07:04:57.546Z,9.40
2023-01-19T07:07:25.992Z,10.30
2023-01-19T07:09:54.362Z,12.93
2023-01-19T07:12:22.523Z,11.50
2023-01-19T07:14:50.681Z,14.50
2023-01-19T07:17:18.806Z,16.45
2023-01-19T07:19:47.465Z,17.15
2023-01-19T07:22:16.945Z,19.85
2023-01-19T07:24:45.102Z,30.42
2023-01-19T07:27:13.255Z,35.95
2023-01-19T07:29:41.489Z,33.95
2023-01-19T07:32:09.637Z,37.78
2023-01-19T07:34:37.958Z,38.50
2023-01-19T07:37:06.077Z,34.20
2023-01-19T07:39:36.734Z,32.70
2023-01-19T07:42:05.124Z,30.10
2023-01-19T07:44:33.338Z,30.80
2023-01-19T07:47:01.492Z,33.38
2023-01-19T07:49:29.586Z,32.92
2023-01-19T07:51:58.111Z,32.38
2023-01-19T07:54:26.298Z,31.45
2023-01-19T07:56:56.415Z,30.55
2023-01-19T07:59:24.889Z,29.52
2023-01-19T08:01:54.352Z,30.35
2023-01-19T08:04:22.662Z,29.02
2023-01-19T08:06:50.875Z,29.70
2023-01-19T08:09:19.180Z,28.90
2023-01-19T08:11:47.233Z,28.25
2023-01-19T08:14:16.763Z,27.23
2023-01-19T08:16:44.854Z,26.50
2023-01-19T08:19:12.952Z,25.40
2023-01-19T08:21:41.192Z,25.60
2023-01-19T08:24:12.687Z,24.33
2023-01-19T08:26:40.918Z,23.65
2023-01-19T08:29:09.103Z,23.25
2023-01-19T08:31:39.652Z,24.17
2023-01-19T08:34:08.284Z,27.33
2023-01-19T08:36:36.539Z,26.48
2023-01-19T08:39:05.276Z,37.42
2023-01-19T08:41:33.577Z,41.08
2023-01-19T08:44:01.745Z,40.85
2023-01-19T08:46:29.818Z,43.05
2023-01-19T08:48:59.403Z,40.78
2023-01-19T08:51:27.549Z,44.42
2023-01-19T08:53:55.646Z,43.30
2023-01-19T08:56:23.768Z,42.67
2023-01-19T08:59:07.817Z,42.53
2023-01-19T09:01:38.185Z,42.00
2023-01-19T09:04:07.910Z,41.00
2023-01-19T09:06:36.072Z,43.95
2023-01-19T09:09:04.278Z,45.47
2023-01-19T09:11:33.229Z,46.42
2023-01-19T09:14:01.447Z,55.80
2023-01-19T09:16:29.797Z,49.47
2023-01-19T09:18:58.579Z,52.50
2023-01-19T09:21:28.942Z,58.00
2023-01-19T09:23:57.835Z,58.90
2023-01-19T09:26:26.311Z,54.15
2023-01-19T09:28:54.475Z,56.83
2023-01-19T09:31:22.687Z,56.42
2023-01-19T09:33:51.135Z,51.90
2023-01-19T09:36:19.299Z,51.75
2023-01-19T09:38:48.787Z,51.60
2023-01-19T09:41:20.536Z,52.13
2023-01-19T09:43:51.727Z,51.63
2023-01-19T09:46:21.732Z,53.08
2023-01-19T09:48:51.327Z,50.08
2023-01-19T09:51:21.121Z,49.72
2023-01-19T09:54:04.711Z,50.35
2023-01-19T09:56:32.976Z,49.35
2023-01-19T09:59:01.174Z,49.63
2023-01-19T10:01:38.479Z,48.38
2023-01-19T10:04:27.096Z,48.85
2023-01-19T10:06:58.630Z,45.78
2023-01-19T10:09:30.511Z,47.97
2023-01-19T10:11:59.909Z,46.97
2023-01-19T10:14:30.743Z,45.75
2023-01-19T10:17:02.183Z,46.45
2023-01-19T10:19:32.829Z,45.53
2023-01-19T10:22:03.850Z,43.83
2023-01-19T10:24:37.095Z,42.83
2023-01-19T10:27:05.283Z,43.38
2023-01-19T10:29:36.381Z,44.58
2023-01-19T10:32:06.356Z,43.00
2023-01-19T10:34:34.563Z,42.63
2023-01-19T10:37:05.566Z,43.75
2023-01-19T10:39:38.614Z,44.75
2023-01-19T10:42:07.095Z,42.83
2023-01-19T10:44:36.794Z,43.22
2023-01-19T10:47:05.379Z,43.83
2023-01-19T10:49:37.963Z,44.90
2023-01-19T10:52:07.167Z,45.75
2023-01-19T10:54:38.465Z,45.60
2023-01-19T10:57:09.317Z,45.42
2023-01-19T10:59:38.420Z,46.92
2023-01-19T11:02:20.390Z,43.70
2023-01-19T11:04:50.174Z,43.47
2023-01-19T11:07:21.100Z,45.20
2023-01-19T11:09:50.964Z,43.28
2023-01-19T11:12:20.245Z,38.30
2023-01-19T11:14:48.505Z,37.80
2023-01-19T11:17:21.507Z,35.83
2023-01-19T11:19:57.595Z,34.92
2023-01-19T11:22:27.874Z,34.97
2023-01-19T11:25:00.562Z,33.13
2023-01-19T11:27:28.708Z,32.65
2023-01-19T11:30:02.232Z,32.72
2023-01-19T11:32:30.371Z,34.78
2023-01-19T11:34:58.502Z,35.03
2023-01-19T11:37:31.269Z,33.75
2023-01-19T11:40:02.670Z,35.55
2023-01-19T11:42:32.024Z,34.78
2023-01-19T11:45:03.143Z,35.28
2023-01-19T11:47:33.638Z,36.28
2023-01-19T11:50:04.027Z,36.60
2023-01-19T11:52:35.197Z,38.80
2023-01-19T11:55:06.912Z,47.97
2023-01-19T11:57:35.174Z,45.17
2023-01-19T12:00:24.013Z,47.38
2023-01-19T12:02:52.421Z,48.97
2023-01-19T12:05:20.777Z,51.05
2023-01-19T12:07:49.141Z,51.00
2023-01-19T12:10:24.736Z,52.50
2023-01-19T12:12:52.994Z,50.63
2023-01-19T12:15:31.562Z,50.00
2023-01-19T12:18:01.271Z,50.78
2023-01-19T12:20:31.959Z,50.22
2023-01-19T12:23:07.795Z,50.72
2023-01-19T12:25:46.012Z,54.00
2023-01-19T12:28:15.203Z,56.58
2023-01-19T12:30:49.828Z,59.60
2023-01-19T12:33:25.315Z,54.25
2023-01-19T12:35:57.290Z,53.22
2023-01-19T12:38:55.415Z,52.10
2023-01-19T12:41:27.429Z,52.97
2023-01-19T12:44:21.259Z,51.38
2023-01-19T12:46:50.309Z,49.55
2023-01-19T12:49:32.801Z,48.58
2023-01-19T12:52:35.141Z,48.53
2023-01-19T12:55:07.518Z,47.22
2023-01-19T12:57:38.257Z,46.67
2023-01-19T13:00:08.308Z,45.60
2023-01-19T13:02:46.564Z,44.10
2023-01-19T13:05:16.911Z,45.08
2023-01-19T13:08:23.005Z,43.83
2023-01-19T13:10:55.703Z,42.55
2023-01-19T13:13:25.582Z,42.58
2023-01-19T13:15:55.872Z,42.08
2023-01-19T13:18:24.733Z,40.22
2023-01-19T13:20:54.354Z,40.58
2023-01-19T13:23:24.931Z,39.70
2023-01-19T13:26:04.112Z,40.60
2023-01-19T13:28:38.829Z,39.78
2023-01-19T13:31:07.233Z,39.35
2023-01-19T13:33:41.095Z,37.45
2023-01-19T13:36:18.203Z,37.85
2023-01-19T13:38:46.399Z,36.45
2023-01-19T13:41:16.227Z,37.00
2023-01-19T13:43:45.737Z,35.75
2023-01-19T13:46:13.945Z,35.58
2023-01-19T13:48:42.079Z,35.33
2023-01-19T13:51:18.440Z,35.10
2023-01-19T13:53:54.934Z,34.13
2023-01-19T13:56:23.879Z,34.58
2023-01-19T13:59:10.376Z,33.78
2023-01-19T14:01:40.040Z,32.05
2023-01-19T14:04:16.957Z,32.22
2023-01-19T14:06:48.240Z,31.88
2023-01-19T14:09:18.724Z,30.60
2023-01-19T14:11:47.688Z,31.60
2023-01-19T14:14:29.861Z,33.05
2023-01-19T14:16:57.947Z,29.52
2023-01-19T14:19:26.143Z,29.42
2023-01-19T14:22:01.859Z,29.50
2023-01-19T14:24:33.055Z,28.75
2023-01-19T14:27:14.331Z,23.90
2023-01-19T14:29:45.624Z,22.75
2023-01-19T14:32:15.758Z,22.77
2023-01-19T14:34:44.904Z,23.33
2023-01-19T14:37:24.519Z,24.40
2023-01-19T14:39:53.601Z,24.67
2023-01-19T14:42:27.199Z,23.73
2023-01-19T14:44:57.615Z,21.60
2023-01-19T14:47:34.060Z,23.50
2023-01-19T14:50:07.543Z,23.25
2023-01-19T14:52:37.762Z,21.55
2023-01-19T14:55:08.338Z,21.52
2023-01-19T14:57:37.249Z,22.67
2023-01-19T15:00:17.443Z,21.02
2023-01-19T15:02:45.964Z,22.20
2023-01-19T15:05:14.360Z,22.95
2023-01-19T15:07:43.710Z,26.85
2023-01-19T15:10:14.511Z,24.98
2023-01-19T15:12:42.766Z,25.67
2023-01-19T15:15:16.841Z,28.88
2023-01-19T15:17:44.969Z,29.48
2023-01-19T15:20:16.524Z,32.40
2023-01-19T15:22:45.060Z,30.42
2023-01-19T15:25:16.817Z,29.50
2023-01-19T15:27:45.224Z,31.08
2023-01-19T15:30:17.368Z,35.20
2023-01-19T15:32:45.477Z,33.33
2023-01-19T15:35:15.615Z,33.80
2023-01-19T15:37:43.686Z,32.38
2023-01-19T15:40:12.634Z,32.13
2023-01-19T15:42:41.042Z,31.20
2023-01-19T15:45:37.756Z,34.17
2023-01-19T15:48:07.153Z,34.70
2023-01-19T15:50:35.672Z,34.50
2023-01-19T15:53:19.715Z,34.53
2023-01-19T15:55:50.526Z,37.42
2023-01-19T15:58:20.605Z,38.05
2023-01-19T16:00:55.736Z,36.90
2023-01-19T16:03:24.167Z,37.08
2023-01-19T16:05:52.253Z,35.80
2023-01-19T16:08:22.111Z,35.85
2023-01-19T16:10:50.321Z,34.78
2023-01-19T16:13:18.394Z,32.30
2023-01-19T16:15:46.587Z,33.13
2023-01-19T16:18:16.046Z,32.30
2023-01-19T16:20:44.188Z,32.35
2023-01-19T16:23:15.862Z,32.75
2023-01-19T16:25:44.341Z,32.72
2023-01-19T16:28:12.505Z,32.25
2023-01-19T16:30:40.807Z,31.45
2023-01-19T16:33:11.673Z,31.77
2023-01-19T16:35:41.303Z,30.38
2023-01-19T16:38:09.808Z,30.85
2023-01-19T16:40:38.185Z,29.52
2023-01-19T16:43:06.314Z,30.90
2023-01-19T16:45:34.452Z,25.38
2023-01-19T16:48:02.725Z,26.17
2023-01-19T16:50:30.811Z,27.42
2023-01-19T16:53:00.385Z,27.60
2023-01-19T16:55:28.448Z,26.63
2023-01-19T16:57:56.909Z,29.63
2023-01-19T17:00:25.441Z,29.52
2023-01-19T17:02:53.805Z,31.25
2023-01-19T17:05:22.409Z,32.13
2023-01-19T17:07:50.566Z,31.83
2023-01-19T17:10:20.264Z,31.02
2023-01-19T17:12:48.400Z,31.13
2023-01-19T17:15:16.802Z,31.58
2023-01-19T17:17:45.034Z,31.33
2023-01-19T17:20:14.056Z,32.17
2023-01-19T17:22:42.422Z,31.25
2023-01-19T17:25:10.650Z,33.22
2023-01-19T17:27:40.228Z,41.70
2023-01-19T17:30:09.563Z,45.85
2023-01-19T17:32:37.947Z,45.83
2023-01-19T17:35:06.681Z,44.40
2023-01-19T17:37:34.836Z,42.35
2023-01-19T17:40:02.991Z,45.83
2023-01-19T17:42:31.136Z,46.58
2023-01-19T17:45:00.657Z,42.35
2023-01-19T17:47:28.748Z,43.08
2023-01-19T17:49:56.909Z,44.58
2023-01-19T17:52:25.029Z,45.22
2023-01-19T17:54:53.151Z,46.47
2023-01-19T17:57:21.375Z,45.65
2023-01-19T17:59:49.531Z,46.97
2023-01-19T18:02:19.178Z,48.60
2023-01-19T18:04:47.321Z,47.45
2023-01-19T18:07:15.364Z,47.60
2023-01-19T18:09:43.512Z,49.03
2023-01-19T18:12:11.591Z,52.35
2023-01-19T18:14:40.379Z,49.67
2023-01-19T18:17:08.621Z,52.20
2023-01-19T18:19:38.101Z,56.53
2023-01-19T18:22:06.287Z,56.28
2023-01-19T18:24:34.465Z,79.80
2023-01-19T18:27:02.758Z,68.70
2023-01-19T18:29:31.027Z,66.18
2023-01-19T18:31:59.224Z,65.60
2023-01-19T18:34:27.356Z,65.40
2023-01-19T18:36:56.898Z,67.07
2023-01-19T18:39:25.003Z,62.08
2023-01-19T18:41:53.200Z,64.03
2023-01-19T18:44:22.232Z,63.22
2023-01-19T18:46:50.399Z,62.22
2023-01-19T18:49:18.498Z,64.65
2023-01-19T18:51:46.642Z,64.07
2023-01-19T18:54:17.490Z,62.88
2023-01-19T18:56:45.739Z,66.10
2023-01-19T18:59:13.815Z,69.88
2023-01-19T19:01:42.017Z,69.72
2023-01-19T19:04:10.147Z,70.68
2023-01-19T19:06:38.280Z,65.50
2023-01-19T19:09:06.610Z,71.10
2023-01-19T19:11:36.540Z,68.70
2023-01-19T19:14:04.807Z,68.32
2023-01-19T19:16:36.197Z,67.68
2023-01-19T19:19:05.103Z,66.80
2023-01-19T19:21:33.196Z,65.75
2023-01-19T19:24:01.349Z,65.75
2023-01-19T19:26:29.416Z,66.00
2023-01-19T19:28:58.942Z,61.78
2023-01-19T19:31:27.716Z,62.97
2023-01-19T19:33:56.352Z,62.75
2023-01-19T19:36:24.492Z,62.33
2023-01-19T19:38:52.546Z,62.78
2023-01-19T19:41:21.930Z,59.15
2023-01-19T19:43:50.027Z,57.38
2023-01-19T19:46:21.030Z,57.38
2023-01-19T19:48:49.504Z,55.97
2023-01-19T19:51:19.437Z,56.25
2023-01-19T19:53:50.935Z,53.92
2023-01-19T19:56:21.206Z,55.97
2023-01-19T19:58:49.560Z,54.75
2023-01-19T20:01:20.388Z,53.90
2023-01-19T20:03:48.726Z,52.92
2023-01-19T20:06:17.977Z,53.30
2023-01-19T20:08:46.120Z,52.33
2023-01-19T20:11:15.058Z,52.10
2023-01-19T20:13:43.728Z,50.42
2023-01-19T20:16:13.944Z,49.42
2023-01-19T20:18:44.018Z,50.55
2023-01-19T20:21:12.959Z,50.67
2023-01-19T20:23:41.234Z,47.88
2023-01-19T20:26:09.731Z,48.35
2023-01-19T20:28:38.090Z,48.20
2023-01-19T20:31:10.691Z,47.55
2023-01-19T20:33:38.881Z,47.83
2023-01-19T20:36:08.870Z,48.25
2023-01-19T20:38:37.082Z,48.88
2023-01-19T20:41:05.233Z,45.85
2023-01-19T20:43:33.433Z,45.92
2023-01-19T20:46:01.631Z,45.17
2023-01-19T20:48:30.259Z,44.40
2023-01-19T20:51:01.787Z,43.10
2023-01-19T20:53:31.327Z,43.50
2023-01-19T20:55:59.561Z,43.53
2023-01-19T20:58:27.639Z,43.80
2023-01-19T21:00:55.822Z,41.88
2023-01-19T21:03:23.918Z,41.83
2023-01-19T21:05:52.054Z,42.20
2023-01-19T21:08:20.158Z,41.63
2023-01-19T21:10:49.682Z,43.08
2023-01-19T21:13:17.732Z,40.63
2023-01-19T21:15:45.930Z,40.80
2023-01-19T21:18:14.007Z,42.17
2023-01-19T21:20:42.242Z,39.40
2023-01-19T21:23:10.400Z,39.20
2023-01-19T21:25:38.680Z,39.15
2023-01-19T21:28:08.542Z,39.10
2023-01-19T21:30:37.534Z,37.17
2023-01-19T21:33:07.187Z,37.40
2023-01-19T21:35:35.260Z,36.72
2023-01-19T21:38:03.367Z,35.95
2023-01-19T21:40:31.470Z,36.42
2023-01-19T21:42:59.668Z,36.47
2023-01-19T21:45:29.231Z,37.50
2023-01-19T21:47:57.455Z,35.90
2023-01-19T21:50:25.516Z,35.35
2023-01-19T21:52:53.681Z,35.38
2023-01-19T21:55:21.851Z,34.30
2023-01-19T21:57:49.997Z,34.95
2023-01-19T22:00:19.141Z,34.53
2023-01-19T22:03:02.790Z,33.78
2023-01-19T22:05:31.800Z,33.50
2023-01-19T22:07:59.860Z,33.28
2023-01-19T22:10:28.003Z,32.42
2023-01-19T22:12:56.022Z,32.55
2023-01-19T22:15:24.182Z,32.65
2023-01-19T22:17:53.659Z,32.85
2023-01-19T22:20:21.831Z,31.38
2023-01-19T22:22:49.914Z,31.85
2023-01-19T22:25:22.032Z,32.30
2023-01-19T22:27:50.195Z,30.73
2023-01-19T22:30:19.401Z,30.85
2023-01-19T22:32:47.585Z,30.42
2023-01-19T22:35:17.325Z,30.23
2023-01-19T22:37:45.511Z,29.67
2023-01-19T22:40:14.175Z,29.35
2023-01-19T22:42:45.592Z,28.90
2023-01-19T22:45:13.986Z,28.83
2023-01-19T22:47:42.168Z,28.05
2023-01-19T22:50:11.254Z,28.10
2023-01-19T22:52:40.752Z,27.92
2023-01-19T22:55:09.546Z,28.08
2023-01-19T22:57:38.380Z,28.23
2023-01-19T23:00:08.696Z,28.20
2023-01-19T23:02:36.935Z,27.67
2023-01-19T23:05:05.527Z,26.50
2023-01-19T23:07:33.675Z,26.52
2023-01-19T23:10:03.146Z,26.63
2023-01-19T23:12:31.360Z,26.90
2023-01-19T23:14:59.698Z,25.58
2023-01-19T23:17:27.872Z,26.20
2023-01-19T23:19:56.128Z,26.00
2023-01-19T23:22:24.268Z,23.60
2023-01-19T23:24:52.451Z,24.23
2023-01-19T23:27:21.967Z,23.65
2023-01-19T23:29:50.044Z,23.38
2023-01-19T23:32:18.186Z,24.00
2023-01-19T23:34:46.267Z,22.90
2023-01-19T23:37:14.429Z,23.33
2023-01-19T23:39:42.699Z,22.65
2023-01-19T23:42:10.948Z,22.20
2023-01-19T23:44:40.382Z,22.00
2023-01-19T23:47:08.596Z,22.17
2023-01-19T23:49:36.665Z,21.90
2023-01-19T23:52:05.802Z,22.10
2023-01-19T23:54:34.012Z,21.67
2023-01-19T23:57:02.131Z,22.10
2023-01-19T23:59:30.276Z,20.73
